sensor_id;sensor_type;location;lat;lon;timestamp;P1;durP1;ratioP1;P2;durP2;ratioP2
15063;SDS011;7631;52.088;5.088;2023-08-24T00:00:11;1.33;;;1.23;;
15063;SDS011;7631;52.088;5.088;2023-08-24T00:02:36;2.08;;;1.48;;
15063;SDS011;7631;52.088;5.088;2023-08-24T00:05:02;2.08;;;1.52;;
15063;SDS011;7631;52.088;5.088;2023-08-24T00:07:27;1.27;;;1.17;;
15063;SDS011;7631;52.088;5.088;2023-08-24T00:09:53;1.70;;;1.38;;
15063;SDS011;7631;52.088;5.088;2023-08-24T00:12:18;1.85;;;1.48;;
15063;SDS011;7631;52.088;5.088;2023-08-24T00:14:43;1.15;;;1.02;;
15063;SDS011;7631;52.088;5.088;2023-08-24T00:17:08;1.55;;;1.23;;
15063;SDS011;7631;52.088;5.088;2023-08-24T00:19:34;1.05;;;1.05;;
15063;SDS011;7631;52.088;5.088;2023-08-24T00:21:59;1.30;;;1.10;;
15063;SDS011;7631;52.088;5.088;2023-08-24T00:24:24;1.25;;;1.00;;
15063;SDS011;7631;52.088;5.088;2023-08-24T00:26:49;1.63;;;1.50;;
15063;SDS011;7631;52.088;5.088;2023-08-24T00:29:15;1.50;;;1.40;;
15063;SDS011;7631;52.088;5.088;2023-08-24T00:31:40;1.45;;;1.35;;
15063;SDS011;7631;52.088;5.088;2023-08-24T00:34:06;2.10;;;1.20;;
15063;SDS011;7631;52.088;5.088;2023-08-24T00:36:31;1.30;;;1.17;;
15063;SDS011;7631;52.088;5.088;2023-08-24T00:38:56;1.20;;;1.10;;
15063;SDS011;7631;52.088;5.088;2023-08-24T00:41:21;2.15;;;1.38;;
15063;SDS011;7631;52.088;5.088;2023-08-24T00:43:47;1.23;;;1.13;;
15063;SDS011;7631;52.088;5.088;2023-08-24T00:46:15;1.17;;;1.08;;
15063;SDS011;7631;52.088;5.088;2023-08-24T00:48:40;1.65;;;1.27;;
15063;SDS011;7631;52.088;5.088;2023-08-24T00:51:05;1.75;;;1.27;;
15063;SDS011;7631;52.088;5.088;2023-08-24T00:53:30;1.88;;;1.50;;
15063;SDS011;7631;52.088;5.088;2023-08-24T00:55:56;1.42;;;1.27;;
15063;SDS011;7631;52.088;5.088;2023-08-24T00:58:21;2.25;;;1.30;;
15063;SDS011;7631;52.088;5.088;2023-08-24T01:00:56;1.48;;;1.20;;
15063;SDS011;7631;52.088;5.088;2023-08-24T01:03:22;1.55;;;1.23;;
15063;SDS011;7631;52.088;5.088;2023-08-24T01:05:48;2.50;;;1.20;;
15063;SDS011;7631;52.088;5.088;2023-08-24T01:08:14;1.83;;;1.20;;
15063;SDS011;7631;52.088;5.088;2023-08-24T01:10:42;1.90;;;1.25;;
15063;SDS011;7631;52.088;5.088;2023-08-24T01:13:09;1.17;;;1.10;;
15063;SDS011;7631;52.088;5.088;2023-08-24T01:15:37;1.90;;;1.60;;
15063;SDS011;7631;52.088;5.088;2023-08-24T01:18:04;1.15;;;1.05;;
15063;SDS011;7631;52.088;5.088;2023-08-24T01:20:30;1.85;;;1.20;;
15063;SDS011;7631;52.088;5.088;2023-08-24T01:25:37;1.77;;;1.13;;
15063;SDS011;7631;52.088;5.088;2023-08-24T01:28:04;1.52;;;1.20;;
15063;SDS011;7631;52.088;5.088;2023-08-24T01:30:30;1.60;;;1.30;;
15063;SDS011;7631;52.088;5.088;2023-08-24T01:32:56;1.60;;;1.17;;
15063;SDS011;7631;52.088;5.088;2023-08-24T01:35:21;1.13;;;1.05;;
15063;SDS011;7631;52.088;5.088;2023-08-24T01:37:46;1.35;;;1.25;;
15063;SDS011;7631;52.088;5.088;2023-08-24T01:40:20;1.05;;;0.93;;
15063;SDS011;7631;52.088;5.088;2023-08-24T01:45:17;1.40;;;1.17;;
15063;SDS011;7631;52.088;5.088;2023-08-24T01:47:44;1.65;;;1.15;;
15063;SDS011;7631;52.088;5.088;2023-08-24T01:50:10;1.02;;;1.02;;
15063;SDS011;7631;52.088;5.088;2023-08-24T01:52:35;1.27;;;1.17;;
15063;SDS011;7631;52.088;5.088;2023-08-24T01:55:01;1.70;;;1.35;;
15063;SDS011;7631;52.088;5.088;2023-08-24T01:57:26;2.00;;;1.30;;
15063;SDS011;7631;52.088;5.088;2023-08-24T01:59:51;1.58;;;1.42;;
15063;SDS011;7631;52.088;5.088;2023-08-24T02:02:16;1.23;;;1.13;;
15063;SDS011;7631;52.088;5.088;2023-08-24T02:04:42;1.60;;;1.40;;
15063;SDS011;7631;52.088;5.088;2023-08-24T02:07:07;1.33;;;1.20;;
15063;SDS011;7631;52.088;5.088;2023-08-24T02:09:32;2.28;;;1.33;;
15063;SDS011;7631;52.088;5.088;2023-08-24T02:11:58;1.42;;;1.20;;
15063;SDS011;7631;52.088;5.088;2023-08-24T02:14:23;1.27;;;1.17;;
15063;SDS011;7631;52.088;5.088;2023-08-24T02:16:48;1.65;;;1.17;;
15063;SDS011;7631;52.088;5.088;2023-08-24T02:19:13;1.33;;;1.17;;
15063;SDS011;7631;52.088;5.088;2023-08-24T02:21:39;1.30;;;1.20;;
15063;SDS011;7631;52.088;5.088;2023-08-24T02:24:04;1.38;;;1.20;;
15063;SDS011;7631;52.088;5.088;2023-08-24T02:26:29;1.58;;;1.05;;
15063;SDS011;7631;52.088;5.088;2023-08-24T02:28:54;1.70;;;1.20;;
15063;SDS011;7631;52.088;5.088;2023-08-24T02:31:20;1.98;;;1.40;;
15063;SDS011;7631;52.088;5.088;2023-08-24T02:33:45;2.03;;;1.50;;
15063;SDS011;7631;52.088;5.088;2023-08-24T02:36:10;1.35;;;1.23;;
15063;SDS011;7631;52.088;5.088;2023-08-24T02:38:36;1.70;;;1.20;;
15063;SDS011;7631;52.088;5.088;2023-08-24T02:41:02;2.08;;;1.60;;
15063;SDS011;7631;52.088;5.088;2023-08-24T02:43:27;1.42;;;1.33;;
15063;SDS011;7631;52.088;5.088;2023-08-24T02:45:53;1.65;;;1.55;;
15063;SDS011;7631;52.088;5.088;2023-08-24T02:48:18;2.28;;;1.58;;
15063;SDS011;7631;52.088;5.088;2023-08-24T02:50:45;1.30;;;1.20;;
15063;SDS011;7631;52.088;5.088;2023-08-24T02:53:10;1.63;;;1.50;;
15063;SDS011;7631;52.088;5.088;2023-08-24T02:55:36;2.13;;;1.40;;
15063;SDS011;7631;52.088;5.088;2023-08-24T02:58:01;1.58;;;1.48;;
15063;SDS011;7631;52.088;5.088;2023-08-24T03:00:26;1.63;;;1.35;;
15063;SDS011;7631;52.088;5.088;2023-08-24T03:02:51;1.55;;;1.10;;
15063;SDS011;7631;52.088;5.088;2023-08-24T03:05:16;1.73;;;1.30;;
15063;SDS011;7631;52.088;5.088;2023-08-24T03:07:42;1.50;;;1.40;;
15063;SDS011;7631;52.088;5.088;2023-08-24T03:10:07;1.88;;;1.30;;
15063;SDS011;7631;52.088;5.088;2023-08-24T03:12:32;1.65;;;1.40;;
15063;SDS011;7631;52.088;5.088;2023-08-24T03:14:58;1.30;;;1.20;;
15063;SDS011;7631;52.088;5.088;2023-08-24T03:17:23;2.38;;;1.50;;
15063;SDS011;7631;52.088;5.088;2023-08-24T03:19:48;1.65;;;1.55;;
15063;SDS011;7631;52.088;5.088;2023-08-24T03:22:13;1.60;;;1.50;;
15063;SDS011;7631;52.088;5.088;2023-08-24T03:24:39;1.80;;;1.57;;
15063;SDS011;7631;52.088;5.088;2023-08-24T03:27:04;1.65;;;1.48;;
15063;SDS011;7631;52.088;5.088;2023-08-24T03:29:29;1.67;;;1.50;;
15063;SDS011;7631;52.088;5.088;2023-08-24T03:31:54;1.80;;;1.20;;
15063;SDS011;7631;52.088;5.088;2023-08-24T03:34:20;1.93;;;1.40;;
15063;SDS011;7631;52.088;5.088;2023-08-24T03:36:46;1.55;;;1.33;;
15063;SDS011;7631;52.088;5.088;2023-08-24T03:39:12;1.52;;;1.42;;
15063;SDS011;7631;52.088;5.088;2023-08-24T03:41:38;1.58;;;1.30;;
15063;SDS011;7631;52.088;5.088;2023-08-24T03:44:04;1.25;;;1.15;;
15063;SDS011;7631;52.088;5.088;2023-08-24T03:46:30;2.00;;;1.48;;
15063;SDS011;7631;52.088;5.088;2023-08-24T03:48:55;1.42;;;1.33;;
15063;SDS011;7631;52.088;5.088;2023-08-24T03:51:20;2.10;;;1.50;;
15063;SDS011;7631;52.088;5.088;2023-08-24T03:53:46;1.50;;;1.40;;
15063;SDS011;7631;52.088;5.088;2023-08-24T03:56:11;1.60;;;1.50;;
15063;SDS011;7631;52.088;5.088;2023-08-24T03:58:36;2.00;;;1.33;;
15063;SDS011;7631;52.088;5.088;2023-08-24T04:01:01;1.58;;;1.48;;
15063;SDS011;7631;52.088;5.088;2023-08-24T04:03:27;1.73;;;1.55;;
15063;SDS011;7631;52.088;5.088;2023-08-24T04:05:52;1.70;;;1.58;;
15063;SDS011;7631;52.088;5.088;2023-08-24T04:08:17;1.73;;;1.63;;
15063;SDS011;7631;52.088;5.088;2023-08-24T04:10:43;2.15;;;1.65;;
15063;SDS011;7631;52.088;5.088;2023-08-24T04:13:08;1.65;;;1.55;;
15063;SDS011;7631;52.088;5.088;2023-08-24T04:15:33;2.17;;;1.55;;
15063;SDS011;7631;52.088;5.088;2023-08-24T04:17:58;1.53;;;1.43;;
15063;SDS011;7631;52.088;5.088;2023-08-24T04:20:24;2.33;;;1.75;;
15063;SDS011;7631;52.088;5.088;2023-08-24T04:22:49;1.60;;;1.43;;
15063;SDS011;7631;52.088;5.088;2023-08-24T04:25:14;1.60;;;1.50;;
15063;SDS011;7631;52.088;5.088;2023-08-24T04:27:39;3.05;;;1.92;;
15063;SDS011;7631;52.088;5.088;2023-08-24T04:30:05;1.90;;;1.70;;
15063;SDS011;7631;52.088;5.088;2023-08-24T04:32:31;2.08;;;1.60;;
15063;SDS011;7631;52.088;5.088;2023-08-24T04:34:56;2.03;;;1.57;;
15063;SDS011;7631;52.088;5.088;2023-08-24T04:37:22;2.97;;;1.87;;
15063;SDS011;7631;52.088;5.088;2023-08-24T04:39:47;2.00;;;1.80;;
15063;SDS011;7631;52.088;5.088;2023-08-24T04:42:12;2.17;;;1.90;;
15063;SDS011;7631;52.088;5.088;2023-08-24T04:44:37;2.20;;;2.00;;
15063;SDS011;7631;52.088;5.088;2023-08-24T04:47:03;2.10;;;1.90;;
15063;SDS011;7631;52.088;5.088;2023-08-24T04:49:29;2.55;;;2.00;;
15063;SDS011;7631;52.088;5.088;2023-08-24T04:51:55;1.63;;;1.52;;
15063;SDS011;7631;52.088;5.088;2023-08-24T04:54:20;2.00;;;1.80;;
15063;SDS011;7631;52.088;5.088;2023-08-24T04:56:46;1.80;;;1.70;;
15063;SDS011;7631;52.088;5.088;2023-08-24T04:59:12;1.90;;;1.70;;
15063;SDS011;7631;52.088;5.088;2023-08-24T05:01:37;2.17;;;1.90;;
15063;SDS011;7631;52.088;5.088;2023-08-24T05:04:03;1.90;;;1.63;;
15063;SDS011;7631;52.088;5.088;2023-08-24T05:06:28;2.70;;;1.90;;
15063;SDS011;7631;52.088;5.088;2023-08-24T05:08:54;2.03;;;1.70;;
15063;SDS011;7631;52.088;5.088;2023-08-24T05:11:20;2.33;;;1.58;;
15063;SDS011;7631;52.088;5.088;2023-08-24T05:13:45;1.65;;;1.55;;
15063;SDS011;7631;52.088;5.088;2023-08-24T05:16:11;1.53;;;1.40;;
15063;SDS011;7631;52.088;5.088;2023-08-24T05:18:36;2.53;;;1.60;;
15063;SDS011;7631;52.088;5.088;2023-08-24T05:21:02;1.80;;;1.67;;
15063;SDS011;7631;52.088;5.088;2023-08-24T05:23:28;1.70;;;1.60;;
15063;SDS011;7631;52.088;5.088;2023-08-24T05:25:53;2.30;;;1.83;;
15063;SDS011;7631;52.088;5.088;2023-08-24T05:28:18;1.80;;;1.67;;
15063;SDS011;7631;52.088;5.088;2023-08-24T05:30:44;2.00;;;1.80;;
15063;SDS011;7631;52.088;5.088;2023-08-24T05:33:09;1.50;;;1.40;;
15063;SDS011;7631;52.088;5.088;2023-08-24T05:35:34;1.88;;;1.48;;
15063;SDS011;7631;52.088;5.088;2023-08-24T05:37:59;2.10;;;1.60;;
15063;SDS011;7631;52.088;5.088;2023-08-24T05:40:25;1.73;;;1.63;;
15063;SDS011;7631;52.088;5.088;2023-08-24T05:42:50;1.97;;;1.67;;
15063;SDS011;7631;52.088;5.088;2023-08-24T05:45:15;1.43;;;1.33;;
15063;SDS011;7631;52.088;5.088;2023-08-24T05:47:40;1.80;;;1.70;;
15063;SDS011;7631;52.088;5.088;2023-08-24T05:50:06;1.50;;;1.40;;
15063;SDS011;7631;52.088;5.088;2023-08-24T05:52:31;1.60;;;1.50;;
15063;SDS011;7631;52.088;5.088;2023-08-24T05:54:59;2.20;;;1.80;;
15063;SDS011;7631;52.088;5.088;2023-08-24T05:57:42;3.72;;;2.58;;
15063;SDS011;7631;52.088;5.088;2023-08-24T06:00:07;3.37;;;2.33;;
15063;SDS011;7631;52.088;5.088;2023-08-24T06:02:35;2.93;;;2.20;;
15063;SDS011;7631;52.088;5.088;2023-08-24T06:05:00;4.50;;;2.63;;
15063;SDS011;7631;52.088;5.088;2023-08-24T06:07:25;3.03;;;2.43;;
15063;SDS011;7631;52.088;5.088;2023-08-24T06:09:50;2.33;;;2.10;;
15063;SDS011;7631;52.088;5.088;2023-08-24T06:12:16;2.57;;;2.00;;
15063;SDS011;7631;52.088;5.088;2023-08-24T06:14:41;3.10;;;2.30;;
15063;SDS011;7631;52.088;5.088;2023-08-24T06:17:06;2.47;;;2.10;;
15063;SDS011;7631;52.088;5.088;2023-08-24T06:19:31;2.20;;;2.00;;
15063;SDS011;7631;52.088;5.088;2023-08-24T06:21:57;2.55;;;2.03;;
15063;SDS011;7631;52.088;5.088;2023-08-24T06:24:22;2.97;;;2.00;;
15063;SDS011;7631;52.088;5.088;2023-08-24T06:26:47;2.40;;;1.90;;
15063;SDS011;7631;52.088;5.088;2023-08-24T06:29:12;2.30;;;2.10;;
15063;SDS011;7631;52.088;5.088;2023-08-24T06:31:37;2.50;;;2.10;;
15063;SDS011;7631;52.088;5.088;2023-08-24T06:34:03;2.43;;;1.80;;
15063;SDS011;7631;52.088;5.088;2023-08-24T06:36:28;2.90;;;2.03;;
15063;SDS011;7631;52.088;5.088;2023-08-24T06:38:54;2.20;;;1.87;;
15063;SDS011;7631;52.088;5.088;2023-08-24T06:41:19;3.85;;;2.20;;
15063;SDS011;7631;52.088;5.088;2023-08-24T06:43:45;2.15;;;1.95;;
15063;SDS011;7631;52.088;5.088;2023-08-24T06:46:10;2.73;;;2.00;;
15063;SDS011;7631;52.088;5.088;2023-08-24T06:48:35;1.90;;;1.73;;
15063;SDS011;7631;52.088;5.088;2023-08-24T06:51:02;2.20;;;2.00;;
15063;SDS011;7631;52.088;5.088;2023-08-24T06:53:27;2.10;;;1.90;;
15063;SDS011;7631;52.088;5.088;2023-08-24T06:55:56;1.93;;;1.80;;
15063;SDS011;7631;52.088;5.088;2023-08-24T06:58:21;3.00;;;2.20;;
15063;SDS011;7631;52.088;5.088;2023-08-24T07:00:47;2.33;;;2.10;;
15063;SDS011;7631;52.088;5.088;2023-08-24T07:03:12;2.90;;;2.00;;
15063;SDS011;7631;52.088;5.088;2023-08-24T07:05:38;2.03;;;1.80;;
15063;SDS011;7631;52.088;5.088;2023-08-24T07:08:03;1.73;;;1.63;;
15063;SDS011;7631;52.088;5.088;2023-08-24T07:10:29;1.90;;;1.70;;
15063;SDS011;7631;52.088;5.088;2023-08-24T07:12:54;2.78;;;1.90;;
15063;SDS011;7631;52.088;5.088;2023-08-24T07:15:20;2.72;;;2.40;;
15063;SDS011;7631;52.088;5.088;2023-08-24T07:17:45;2.10;;;1.90;;
15063;SDS011;7631;52.088;5.088;2023-08-24T07:20:10;1.90;;;1.73;;
15063;SDS011;7631;52.088;5.088;2023-08-24T07:22:38;2.63;;;1.90;;
15063;SDS011;7631;52.088;5.088;2023-08-24T07:25:04;2.10;;;1.90;;
15063;SDS011;7631;52.088;5.088;2023-08-24T07:27:31;2.35;;;1.90;;
15063;SDS011;7631;52.088;5.088;2023-08-24T07:29:56;1.92;;;1.80;;
15063;SDS011;7631;52.088;5.088;2023-08-24T07:32:22;2.78;;;1.88;;
15063;SDS011;7631;52.088;5.088;2023-08-24T07:34:48;2.13;;;1.83;;
15063;SDS011;7631;52.088;5.088;2023-08-24T07:37:14;1.85;;;1.75;;
15063;SDS011;7631;52.088;5.088;2023-08-24T07:39:39;2.20;;;2.00;;
15063;SDS011;7631;52.088;5.088;2023-08-24T07:42:05;1.77;;;1.65;;
15063;SDS011;7631;52.088;5.088;2023-08-24T07:44:30;2.35;;;2.15;;
15063;SDS011;7631;52.088;5.088;2023-08-24T07:46:55;2.33;;;2.10;;
15063;SDS011;7631;52.088;5.088;2023-08-24T07:49:20;2.22;;;1.80;;
15063;SDS011;7631;52.088;5.088;2023-08-24T07:51:46;2.17;;;1.85;;
15063;SDS011;7631;52.088;5.088;2023-08-24T07:54:12;2.22;;;1.77;;
15063;SDS011;7631;52.088;5.088;2023-08-24T07:56:37;2.42;;;2.22;;
15063;SDS011;7631;52.088;5.088;2023-08-24T07:59:02;2.17;;;1.98;;
15063;SDS011;7631;52.088;5.088;2023-08-24T08:01:28;2.58;;;2.38;;
15063;SDS011;7631;52.088;5.088;2023-08-24T08:03:53;2.47;;;2.25;;
15063;SDS011;7631;52.088;5.088;2023-08-24T08:06:18;2.72;;;2.28;;
15063;SDS011;7631;52.088;5.088;2023-08-24T08:08:44;2.75;;;2.30;;
15063;SDS011;7631;52.088;5.088;2023-08-24T08:11:10;3.25;;;2.40;;
15063;SDS011;7631;52.088;5.088;2023-08-24T08:13:35;2.70;;;2.40;;
15063;SDS011;7631;52.088;5.088;2023-08-24T08:16:02;2.85;;;2.30;;
15063;SDS011;7631;52.088;5.088;2023-08-24T08:18:28;2.47;;;2.28;;
15063;SDS011;7631;52.088;5.088;2023-08-24T08:20:54;3.65;;;2.53;;
15063;SDS011;7631;52.088;5.088;2023-08-24T08:23:19;2.22;;;2.03;;
15063;SDS011;7631;52.088;5.088;2023-08-24T08:25:44;2.45;;;2.13;;
15063;SDS011;7631;52.088;5.088;2023-08-24T08:28:10;2.60;;;2.20;;
15063;SDS011;7631;52.088;5.088;2023-08-24T08:30:35;3.15;;;2.30;;
15063;SDS011;7631;52.088;5.088;2023-08-24T08:33:00;2.53;;;1.95;;
15063;SDS011;7631;52.088;5.088;2023-08-24T08:35:26;3.45;;;2.50;;
15063;SDS011;7631;52.088;5.088;2023-08-24T08:37:51;3.42;;;2.30;;
15063;SDS011;7631;52.088;5.088;2023-08-24T08:40:18;2.75;;;2.28;;
15063;SDS011;7631;52.088;5.088;2023-08-24T08:42:44;2.83;;;2.50;;
15063;SDS011;7631;52.088;5.088;2023-08-24T08:45:10;3.70;;;2.70;;
15063;SDS011;7631;52.088;5.088;2023-08-24T08:47:35;3.30;;;2.50;;
15063;SDS011;7631;52.088;5.088;2023-08-24T08:50:02;2.85;;;2.55;;
15063;SDS011;7631;52.088;5.088;2023-08-24T08:52:33;2.58;;;2.38;;
15063;SDS011;7631;52.088;5.088;2023-08-24T08:54:59;3.33;;;2.60;;
15063;SDS011;7631;52.088;5.088;2023-08-24T08:57:24;4.13;;;2.70;;
15063;SDS011;7631;52.088;5.088;2023-08-24T08:59:50;3.33;;;2.83;;
15063;SDS011;7631;52.088;5.088;2023-08-24T09:02:17;2.90;;;2.70;;
15063;SDS011;7631;52.088;5.088;2023-08-24T09:04:43;2.75;;;2.55;;
15063;SDS011;7631;52.088;5.088;2023-08-24T09:07:09;3.50;;;2.95;;
15063;SDS011;7631;52.088;5.088;2023-08-24T09:09:37;3.78;;;2.80;;
15063;SDS011;7631;52.088;5.088;2023-08-24T09:12:03;2.97;;;2.67;;
15063;SDS011;7631;52.088;5.088;2023-08-24T09:14:28;3.08;;;2.72;;
15063;SDS011;7631;52.088;5.088;2023-08-24T09:16:54;3.55;;;2.92;;
15063;SDS011;7631;52.088;5.088;2023-08-24T09:19:19;2.80;;;2.60;;
15063;SDS011;7631;52.088;5.088;2023-08-24T09:21:54;3.15;;;2.80;;
15063;SDS011;7631;52.088;5.088;2023-08-24T09:24:28;2.53;;;2.33;;
15063;SDS011;7631;52.088;5.088;2023-08-24T09:26:53;2.42;;;2.10;;
15063;SDS011;7631;52.088;5.088;2023-08-24T09:29:19;2.60;;;2.40;;
15063;SDS011;7631;52.088;5.088;2023-08-24T09:31:45;2.90;;;2.38;;
15063;SDS011;7631;52.088;5.088;2023-08-24T09:34:10;2.50;;;2.30;;
15063;SDS011;7631;52.088;5.088;2023-08-24T09:36:36;3.05;;;2.75;;
15063;SDS011;7631;52.088;5.088;2023-08-24T09:39:02;2.72;;;2.47;;
15063;SDS011;7631;52.088;5.088;2023-08-24T09:41:41;3.67;;;2.55;;
15063;SDS011;7631;52.088;5.088;2023-08-24T09:44:09;2.50;;;2.30;;
15063;SDS011;7631;52.088;5.088;2023-08-24T09:46:35;2.50;;;2.30;;
15063;SDS011;7631;52.088;5.088;2023-08-24T09:49:07;3.35;;;2.53;;
15063;SDS011;7631;52.088;5.088;2023-08-24T09:51:33;2.60;;;2.38;;
15063;SDS011;7631;52.088;5.088;2023-08-24T09:53:58;3.60;;;2.80;;
15063;SDS011;7631;52.088;5.088;2023-08-24T09:56:27;2.58;;;2.00;;
15063;SDS011;7631;52.088;5.088;2023-08-24T09:58:53;2.40;;;2.20;;
15063;SDS011;7631;52.088;5.088;2023-08-24T10:01:19;2.40;;;2.20;;
15063;SDS011;7631;52.088;5.088;2023-08-24T10:03:44;2.40;;;2.20;;
15063;SDS011;7631;52.088;5.088;2023-08-24T10:06:11;2.55;;;2.15;;
15063;SDS011;7631;52.088;5.088;2023-08-24T10:08:38;3.75;;;2.30;;
15063;SDS011;7631;52.088;5.088;2023-08-24T10:11:04;3.42;;;2.38;;
15063;SDS011;7631;52.088;5.088;2023-08-24T10:16:06;2.75;;;2.55;;
15063;SDS011;7631;52.088;5.088;2023-08-24T10:18:32;3.08;;;2.50;;
15063;SDS011;7631;52.088;5.088;2023-08-24T10:20:58;3.10;;;2.47;;
15063;SDS011;7631;52.088;5.088;2023-08-24T10:23:24;2.60;;;2.33;;
15063;SDS011;7631;52.088;5.088;2023-08-24T10:25:51;3.40;;;2.05;;
15063;SDS011;7631;52.088;5.088;2023-08-24T10:28:18;2.38;;;2.17;;
15063;SDS011;7631;52.088;5.088;2023-08-24T10:30:43;2.20;;;2.00;;
15063;SDS011;7631;52.088;5.088;2023-08-24T10:33:09;2.40;;;2.20;;
15063;SDS011;7631;52.088;5.088;2023-08-24T10:35:36;2.33;;;2.13;;
15063;SDS011;7631;52.088;5.088;2023-08-24T10:38:01;3.50;;;2.47;;
15063;SDS011;7631;52.088;5.088;2023-08-24T10:40:33;3.13;;;2.25;;
15063;SDS011;7631;52.088;5.088;2023-08-24T10:43:02;2.65;;;2.45;;
15063;SDS011;7631;52.088;5.088;2023-08-24T10:45:28;2.78;;;2.22;;
15063;SDS011;7631;52.088;5.088;2023-08-24T10:48:13;2.40;;;2.20;;
15063;SDS011;7631;52.088;5.088;2023-08-24T10:50:38;2.80;;;2.47;;
15063;SDS011;7631;52.088;5.088;2023-08-24T10:53:04;2.00;;;1.90;;
15063;SDS011;7631;52.088;5.088;2023-08-24T10:55:32;2.72;;;2.53;;
15063;SDS011;7631;52.088;5.088;2023-08-24T10:58:01;2.40;;;2.20;;
15063;SDS011;7631;52.088;5.088;2023-08-24T11:00:28;2.55;;;1.95;;
15063;SDS011;7631;52.088;5.088;2023-08-24T11:02:54;2.38;;;2.17;;
15063;SDS011;7631;52.088;5.088;2023-08-24T11:10:15;3.85;;;2.40;;
15063;SDS011;7631;52.088;5.088;2023-08-24T11:15:31;2.33;;;2.08;;
15063;SDS011;7631;52.088;5.088;2023-08-24T11:20:39;2.55;;;2.25;;
15063;SDS011;7631;52.088;5.088;2023-08-24T11:23:07;2.60;;;2.40;;
15063;SDS011;7631;52.088;5.088;2023-08-24T11:25:35;3.10;;;2.80;;
15063;SDS011;7631;52.088;5.088;2023-08-24T11:28:00;2.78;;;2.40;;
15063;SDS011;7631;52.088;5.088;2023-08-24T11:30:25;2.58;;;2.35;;
15063;SDS011;7631;52.088;5.088;2023-08-24T11:32:51;2.40;;;2.20;;
15063;SDS011;7631;52.088;5.088;2023-08-24T11:35:18;2.55;;;2.33;;
15063;SDS011;7631;52.088;5.088;2023-08-24T11:37:43;2.75;;;2.40;;
15063;SDS011;7631;52.088;5.088;2023-08-24T11:40:16;2.92;;;2.72;;
15063;SDS011;7631;52.088;5.088;2023-08-24T11:42:41;2.85;;;2.63;;
15063;SDS011;7631;52.088;5.088;2023-08-24T11:45:10;3.42;;;2.55;;
15063;SDS011;7631;52.088;5.088;2023-08-24T11:47:37;2.85;;;2.65;;
15063;SDS011;7631;52.088;5.088;2023-08-24T11:50:03;2.33;;;2.13;;
15063;SDS011;7631;52.088;5.088;2023-08-24T11:52:28;2.53;;;2.33;;
15063;SDS011;7631;52.088;5.088;2023-08-24T11:54:54;3.00;;;2.40;;
15063;SDS011;7631;52.088;5.088;2023-08-24T11:57:19;2.50;;;2.30;;
15063;SDS011;7631;52.088;5.088;2023-08-24T11:59:44;2.83;;;2.55;;
15063;SDS011;7631;52.088;5.088;2023-08-24T12:02:10;2.97;;;2.55;;
15063;SDS011;7631;52.088;5.088;2023-08-24T12:04:39;2.72;;;2.47;;
15063;SDS011;7631;52.088;5.088;2023-08-24T12:07:08;2.58;;;2.30;;
15063;SDS011;7631;52.088;5.088;2023-08-24T12:09:33;2.70;;;2.50;;
15063;SDS011;7631;52.088;5.088;2023-08-24T12:11:59;2.97;;;2.70;;
15063;SDS011;7631;52.088;5.088;2023-08-24T12:14:24;3.13;;;2.50;;
15063;SDS011;7631;52.088;5.088;2023-08-24T12:16:49;4.93;;;2.60;;
15063;SDS011;7631;52.088;5.088;2023-08-24T12:19:18;2.88;;;2.67;;
15063;SDS011;7631;52.088;5.088;2023-08-24T12:21:46;3.20;;;2.90;;
15063;SDS011;7631;52.088;5.088;2023-08-24T12:24:14;3.20;;;2.90;;
15063;SDS011;7631;52.088;5.088;2023-08-24T12:26:40;2.80;;;2.55;;
15063;SDS011;7631;52.088;5.088;2023-08-24T12:29:06;2.35;;;2.15;;
15063;SDS011;7631;52.088;5.088;2023-08-24T12:31:34;2.80;;;2.60;;
15063;SDS011;7631;52.088;5.088;2023-08-24T12:34:01;3.15;;;2.70;;
15063;SDS011;7631;52.088;5.088;2023-08-24T12:36:26;2.40;;;2.10;;
15063;SDS011;7631;52.088;5.088;2023-08-24T12:38:51;3.08;;;2.80;;
15063;SDS011;7631;52.088;5.088;2023-08-24T12:41:17;2.92;;;2.72;;
15063;SDS011;7631;52.088;5.088;2023-08-24T12:43:42;3.00;;;2.47;;
15063;SDS011;7631;52.088;5.088;2023-08-24T12:46:07;2.75;;;2.55;;
15063;SDS011;7631;52.088;5.088;2023-08-24T12:48:32;2.50;;;2.30;;
15063;SDS011;7631;52.088;5.088;2023-08-24T12:50:58;3.15;;;2.85;;
15063;SDS011;7631;52.088;5.088;2023-08-24T12:53:23;2.83;;;2.60;;
15063;SDS011;7631;52.088;5.088;2023-08-24T12:55:48;2.92;;;2.72;;
15063;SDS011;7631;52.088;5.088;2023-08-24T12:58:14;2.95;;;2.75;;
15063;SDS011;7631;52.088;5.088;2023-08-24T13:00:39;2.60;;;2.30;;
15063;SDS011;7631;52.088;5.088;2023-08-24T13:03:04;3.13;;;2.83;;
15063;SDS011;7631;52.088;5.088;2023-08-24T13:05:29;3.78;;;3.05;;
15063;SDS011;7631;52.088;5.088;2023-08-24T13:07:55;2.85;;;2.63;;
15063;SDS011;7631;52.088;5.088;2023-08-24T13:10:21;2.88;;;2.67;;
15063;SDS011;7631;52.088;5.088;2023-08-24T13:12:46;3.33;;;3.05;;
15063;SDS011;7631;52.088;5.088;2023-08-24T13:15:12;3.13;;;2.83;;
15063;SDS011;7631;52.088;5.088;2023-08-24T13:17:37;3.40;;;3.10;;
15063;SDS011;7631;52.088;5.088;2023-08-24T13:20:02;3.65;;;2.95;;
15063;SDS011;7631;52.088;5.088;2023-08-24T13:22:28;3.20;;;2.95;;
15063;SDS011;7631;52.088;5.088;2023-08-24T13:24:54;3.55;;;2.85;;
15063;SDS011;7631;52.088;5.088;2023-08-24T13:27:19;2.83;;;2.63;;
15063;SDS011;7631;52.088;5.088;2023-08-24T13:29:44;3.10;;;2.90;;
15063;SDS011;7631;52.088;5.088;2023-08-24T13:32:09;3.42;;;3.00;;
15063;SDS011;7631;52.088;5.088;2023-08-24T13:34:35;3.40;;;3.10;;
15063;SDS011;7631;52.088;5.088;2023-08-24T13:37:01;3.70;;;3.35;;
15063;SDS011;7631;52.088;5.088;2023-08-24T13:39:26;2.85;;;2.65;;
15063;SDS011;7631;52.088;5.088;2023-08-24T13:41:58;3.30;;;3.00;;
15063;SDS011;7631;52.088;5.088;2023-08-24T13:44:23;3.10;;;2.80;;
15063;SDS011;7631;52.088;5.088;2023-08-24T13:46:49;2.83;;;2.63;;
15063;SDS011;7631;52.088;5.088;2023-08-24T13:49:14;2.95;;;2.75;;
15063;SDS011;7631;52.088;5.088;2023-08-24T13:51:39;3.35;;;3.05;;
15063;SDS011;7631;52.088;5.088;2023-08-24T13:54:14;4.07;;;3.30;;
15063;SDS011;7631;52.088;5.088;2023-08-24T13:56:41;3.72;;;3.03;;
15063;SDS011;7631;52.088;5.088;2023-08-24T13:59:06;3.80;;;3.42;;
15063;SDS011;7631;52.088;5.088;2023-08-24T14:01:31;3.50;;;3.20;;
15063;SDS011;7631;52.088;5.088;2023-08-24T14:03:56;3.90;;;3.58;;
15063;SDS011;7631;52.088;5.088;2023-08-24T14:06:22;3.88;;;3.15;;
15063;SDS011;7631;52.088;5.088;2023-08-24T14:08:47;3.60;;;3.25;;
15063;SDS011;7631;52.088;5.088;2023-08-24T14:11:12;4.03;;;3.72;;
15063;SDS011;7631;52.088;5.088;2023-08-24T14:13:38;3.30;;;2.88;;
15063;SDS011;7631;52.088;5.088;2023-08-24T14:16:03;4.05;;;3.65;;
15063;SDS011;7631;52.088;5.088;2023-08-24T14:18:29;3.58;;;3.28;;
15063;SDS011;7631;52.088;5.088;2023-08-24T14:20:55;3.58;;;3.28;;
15063;SDS011;7631;52.088;5.088;2023-08-24T14:23:20;4.43;;;3.03;;
15063;SDS011;7631;52.088;5.088;2023-08-24T14:25:46;3.67;;;3.38;;
15063;SDS011;7631;52.088;5.088;2023-08-24T14:28:12;3.50;;;3.20;;
15063;SDS011;7631;52.088;5.088;2023-08-24T14:30:38;3.65;;;3.20;;
15063;SDS011;7631;52.088;5.088;2023-08-24T14:33:04;3.20;;;2.90;;
15063;SDS011;7631;52.088;5.088;2023-08-24T14:35:29;4.35;;;3.95;;
15063;SDS011;7631;52.088;5.088;2023-08-24T14:37:54;5.35;;;4.00;;
15063;SDS011;7631;52.088;5.088;2023-08-24T14:40:20;3.65;;;3.35;;
15063;SDS011;7631;52.088;5.088;2023-08-24T14:42:45;3.85;;;3.50;;
15063;SDS011;7631;52.088;5.088;2023-08-24T14:45:10;4.28;;;3.58;;
15063;SDS011;7631;52.088;5.088;2023-08-24T14:47:35;3.42;;;3.13;;
15063;SDS011;7631;52.088;5.088;2023-08-24T14:50:01;3.10;;;2.90;;
15063;SDS011;7631;52.088;5.088;2023-08-24T14:52:26;3.72;;;3.42;;
15063;SDS011;7631;52.088;5.088;2023-08-24T14:54:51;3.95;;;3.55;;
15063;SDS011;7631;52.088;5.088;2023-08-24T14:57:16;4.20;;;3.72;;
15063;SDS011;7631;52.088;5.088;2023-08-24T14:59:41;3.42;;;3.13;;
15063;SDS011;7631;52.088;5.088;2023-08-24T15:02:07;3.38;;;3.08;;
15063;SDS011;7631;52.088;5.088;2023-08-24T15:04:32;4.10;;;3.70;;
15063;SDS011;7631;52.088;5.088;2023-08-24T15:06:58;3.67;;;3.38;;
15063;SDS011;7631;52.088;5.088;2023-08-24T15:09:23;4.15;;;3.60;;